createdAt,value
2023-04-19T00:00:34.704Z,9.30
2023-04-19T00:01:34.719Z,9.62
2023-04-19T00:02:34.832Z,17.68
2023-04-19T00:03:34.907Z,9.30
2023-04-19T00:04:34.766Z,9.62
2023-04-19T00:05:34.649Z,9.62
2023-04-19T00:06:34.621Z,9.94
2023-04-19T00:07:34.626Z,9.30
2023-04-19T00:08:34.584Z,9.62
2023-04-19T00:09:34.622Z,8.97
2023-04-19T00:10:34.566Z,9.30
2023-04-19T00:11:34.550Z,9.62
2023-04-19T00:12:34.536Z,9.30
2023-04-19T00:13:34.538Z,8.97
2023-04-19T00:14:34.508Z,8.97
2023-04-19T00:15:34.574Z,8.97
2023-04-19T00:16:34.536Z,9.30
2023-04-19T00:17:34.581Z,9.30
2023-04-19T00:18:34.498Z,9.62
2023-04-19T00:19:34.477Z,8.97
2023-04-19T00:20:34.455Z,8.97
2023-04-19T00:21:34.410Z,9.62
2023-04-19T00:22:34.491Z,9.94
2023-04-19T00:23:34.400Z,9.62
2023-04-19T00:24:34.529Z,9.30
2023-04-19T00:25:34.385Z,9.30
2023-04-19T00:26:34.358Z,9.62
2023-04-19T00:27:34.339Z,9.62
2023-04-19T00:28:34.333Z,9.62
2023-04-19T00:29:41.349Z,8.97
2023-04-19T00:30:34.331Z,9.62
2023-04-19T00:31:34.285Z,9.94
2023-04-19T00:32:34.319Z,9.30
2023-04-19T00:33:34.264Z,9.30
2023-04-19T00:34:34.244Z,9.62
2023-04-19T00:35:34.241Z,9.94
2023-04-19T00:36:34.216Z,9.30
2023-04-19T00:37:34.198Z,9.94
2023-04-19T00:38:34.208Z,9.30
2023-04-19T00:39:34.173Z,8.97
2023-04-19T00:40:34.165Z,9.30
2023-04-19T00:41:34.147Z,9.30
2023-04-19T00:42:34.138Z,9.30
2023-04-19T00:43:34.126Z,9.62
2023-04-19T00:44:34.115Z,9.30
2023-04-19T00:45:34.093Z,8.97
2023-04-19T00:46:34.196Z,9.94
2023-04-19T00:47:34.123Z,9.62
2023-04-19T00:48:34.074Z,9.94
2023-04-19T00:49:34.055Z,9.62
2023-04-19T00:50:34.034Z,9.30
2023-04-19T00:51:34.013Z,8.97
2023-04-19T00:52:34.033Z,9.30
2023-04-19T00:53:34.005Z,9.94
2023-04-19T00:54:33.982Z,8.97
2023-04-19T00:55:33.986Z,9.62
2023-04-19T00:56:33.955Z,9.94
2023-04-19T00:57:33.950Z,9.62
2023-04-19T00:58:33.925Z,8.97
2023-04-19T00:59:33.936Z,8.97
2023-04-19T01:00:33.909Z,8.97
2023-04-19T01:01:33.943Z,8.97
2023-04-19T01:02:33.981Z,8.33
2023-04-19T01:03:33.995Z,8.97
2023-04-19T01:04:34.074Z,9.30
2023-04-19T01:05:33.842Z,9.62
2023-04-19T01:06:33.822Z,9.62
2023-04-19T01:07:33.822Z,9.30
2023-04-19T01:08:33.820Z,8.65
2023-04-19T01:09:33.790Z,8.97
2023-04-19T01:10:33.768Z,9.62
2023-04-19T01:11:33.761Z,9.62
2023-04-19T01:12:33.751Z,9.30
2023-04-19T01:13:33.737Z,9.62
2023-04-19T01:14:33.713Z,9.30
2023-04-19T01:15:33.725Z,9.30
2023-04-19T01:16:33.770Z,9.30
2023-04-19T01:17:33.735Z,8.97
2023-04-19T01:18:33.669Z,8.97
2023-04-19T01:19:33.650Z,9.30
2023-04-19T01:20:33.640Z,9.30
2023-04-19T01:21:33.628Z,9.62
2023-04-19T01:22:33.637Z,9.94
2023-04-19T01:23:33.610Z,9.62
2023-04-19T01:24:33.593Z,9.30
2023-04-19T01:25:33.595Z,9.62
2023-04-19T01:26:33.568Z,9.30
2023-04-19T01:27:33.563Z,9.30
2023-04-19T01:28:33.552Z,8.97
2023-04-19T01:29:33.527Z,8.97
2023-04-19T01:30:33.525Z,9.62
2023-04-19T01:31:33.577Z,9.30
2023-04-19T01:32:33.523Z,8.97
2023-04-19T01:33:33.467Z,9.62
2023-04-19T01:34:33.453Z,9.30
2023-04-19T01:35:33.444Z,9.62
2023-04-19T01:36:33.444Z,8.65
2023-04-19T01:37:33.417Z,8.65
2023-04-19T01:38:33.416Z,8.97
2023-04-19T01:39:33.417Z,9.30
2023-04-19T01:40:33.375Z,8.65
2023-04-19T01:41:33.382Z,8.97
2023-04-19T01:42:33.350Z,9.30
2023-04-19T01:43:33.368Z,9.94
2023-04-19T01:44:33.336Z,8.33
2023-04-19T01:45:33.316Z,9.30
2023-04-19T01:46:33.335Z,9.62
2023-04-19T01:47:33.361Z,8.65
2023-04-19T01:48:33.271Z,8.97
2023-04-19T01:49:33.289Z,9.30
2023-04-19T01:50:33.273Z,9.30
2023-04-19T01:51:33.257Z,8.97
2023-04-19T01:52:33.247Z,9.30
2023-04-19T01:53:33.215Z,8.97
2023-04-19T01:54:33.195Z,8.97
2023-04-19T01:55:33.187Z,8.97
2023-04-19T01:56:33.199Z,9.30
2023-04-19T01:57:33.179Z,9.30
2023-04-19T01:58:33.182Z,9.30
2023-04-19T01:59:33.137Z,8.33
2023-04-19T02:00:33.152Z,8.65
2023-04-19T02:01:33.111Z,8.97
2023-04-19T02:02:33.218Z,9.30
2023-04-19T02:03:33.245Z,8.33
2023-04-19T02:04:33.061Z,8.97
2023-04-19T02:05:33.085Z,8.33
2023-04-19T02:06:33.041Z,9.30
2023-04-19T02:07:33.035Z,8.65
2023-04-19T02:08:33.037Z,8.97
2023-04-19T02:09:33.018Z,9.30
2023-04-19T02:10:33.011Z,8.65
2023-04-19T02:11:32.988Z,-1.66
2023-04-19T02:12:32.972Z,9.30
2023-04-19T02:13:32.970Z,8.97
2023-04-19T02:14:32.946Z,-6.82
2023-04-19T02:15:32.930Z,7.36
2023-04-19T02:16:34.513Z,8.97
2023-04-19T02:17:32.924Z,8.65
2023-04-19T02:18:32.899Z,8.65
2023-04-19T02:19:32.896Z,9.30
2023-04-19T02:20:32.861Z,8.33
2023-04-19T02:21:32.850Z,8.97
2023-04-19T02:22:32.844Z,8.97
2023-04-19T02:23:32.847Z,8.97
2023-04-19T02:24:32.812Z,8.97
2023-04-19T02:25:32.801Z,9.62
2023-04-19T02:26:32.788Z,9.30
2023-04-19T02:27:32.819Z,9.30
2023-04-19T02:28:32.771Z,8.97
2023-04-19T02:29:32.754Z,8.33
2023-04-19T02:30:32.744Z,8.97
2023-04-19T02:31:32.764Z,8.01
2023-04-19T02:32:32.739Z,8.65
2023-04-19T02:33:32.709Z,9.30
2023-04-19T02:34:32.685Z,8.65
2023-04-19T02:35:32.719Z,9.30
2023-04-19T02:36:34.048Z,8.33
2023-04-19T02:37:32.648Z,8.65
2023-04-19T02:38:32.722Z,8.97
2023-04-19T02:39:32.619Z,8.97
2023-04-19T02:40:32.604Z,5.11
2023-04-19T02:41:32.593Z,8.97
2023-04-19T02:42:32.577Z,9.62
2023-04-19T02:43:32.573Z,8.97
2023-04-19T02:44:32.545Z,9.30
2023-04-19T02:45:32.540Z,8.97
2023-04-19T02:46:32.591Z,8.97
2023-04-19T02:47:32.535Z,8.65
2023-04-19T02:48:32.508Z,8.65
2023-04-19T02:49:32.489Z,9.30
2023-04-19T02:50:32.460Z,8.97
2023-04-19T02:51:32.453Z,9.30
2023-04-19T02:52:32.440Z,8.65
2023-04-19T02:53:32.443Z,8.65
2023-04-19T02:54:32.416Z,8.97
2023-04-19T02:55:32.410Z,8.33
2023-04-19T02:56:32.390Z,8.65
2023-04-19T02:57:32.378Z,9.30
2023-04-19T02:58:32.376Z,8.97
2023-04-19T02:59:32.350Z,8.65
2023-04-19T03:00:32.329Z,8.33
2023-04-19T03:01:32.388Z,9.30
2023-04-19T03:02:32.367Z,8.97
2023-04-19T03:03:32.344Z,8.33
2023-04-19T03:04:32.382Z,8.97
2023-04-19T03:05:32.272Z,8.97
2023-04-19T03:06:32.266Z,8.33
2023-04-19T03:07:32.249Z,9.30
2023-04-19T03:08:32.241Z,8.97
2023-04-19T03:09:32.221Z,8.65
2023-04-19T03:10:32.209Z,8.65
2023-04-19T03:11:32.191Z,8.97
2023-04-19T03:12:32.318Z,8.65
2023-04-19T03:13:32.310Z,8.33
2023-04-19T03:14:32.283Z,8.65
2023-04-19T03:15:32.165Z,8.65
2023-04-19T03:16:32.129Z,8.65
2023-04-19T03:17:32.152Z,8.65
2023-04-19T03:18:32.114Z,8.97
2023-04-19T03:19:32.096Z,8.97
2023-04-19T03:20:32.081Z,8.33
2023-04-19T03:21:32.062Z,8.33
2023-04-19T03:22:32.047Z,8.01
2023-04-19T03:23:32.046Z,8.33
2023-04-19T03:24:32.025Z,9.62
2023-04-19T03:25:32.017Z,8.01
2023-04-19T03:26:31.991Z,8.01
2023-04-19T03:27:31.980Z,8.97
2023-04-19T03:28:31.974Z,9.30
2023-04-19T03:29:31.954Z,8.65
2023-04-19T03:30:31.947Z,8.33
2023-04-19T03:31:31.946Z,8.65
2023-04-19T03:32:31.931Z,8.01
2023-04-19T03:33:31.908Z,8.01
2023-04-19T03:34:31.901Z,8.01
2023-04-19T03:35:31.875Z,8.97
2023-04-19T03:36:31.885Z,8.65
2023-04-19T03:37:31.851Z,8.97
2023-04-19T03:38:31.846Z,8.01
2023-04-19T03:39:31.818Z,8.97
2023-04-19T03:40:31.813Z,8.65
2023-04-19T03:41:31.794Z,8.65
2023-04-19T03:42:31.779Z,8.33
2023-04-19T03:43:31.778Z,8.65
2023-04-19T03:44:31.749Z,8.97
2023-04-19T03:45:31.740Z,8.33
2023-04-19T03:46:31.798Z,8.33
2023-04-19T03:47:31.755Z,8.33
2023-04-19T03:48:31.706Z,8.65
2023-04-19T03:49:31.710Z,8.01
2023-04-19T03:50:31.695Z,8.65
2023-04-19T03:51:31.683Z,8.65
2023-04-19T03:52:31.655Z,8.65
2023-04-19T03:53:31.649Z,7.69
2023-04-19T03:54:31.622Z,8.01
2023-04-19T03:55:31.605Z,8.65
2023-04-19T03:56:31.593Z,8.65
2023-04-19T03:57:31.584Z,8.65
2023-04-19T03:58:31.572Z,8.01
2023-04-19T03:59:31.553Z,8.33
2023-04-19T04:00:31.557Z,8.33
2023-04-19T04:01:31.575Z,8.33
2023-04-19T04:02:31.608Z,8.33
2023-04-19T04:03:31.754Z,8.33
2023-04-19T04:04:31.818Z,8.01
2023-04-19T04:05:31.617Z,8.01
2023-04-19T04:06:31.460Z,8.65
2023-04-19T04:07:31.450Z,8.33
2023-04-19T04:08:31.440Z,8.65
2023-04-19T04:09:31.415Z,8.65
2023-04-19T04:10:31.410Z,8.65
2023-04-19T04:11:31.401Z,8.33
2023-04-19T04:12:31.382Z,8.01
2023-04-19T04:13:31.378Z,8.33
2023-04-19T04:14:31.358Z,8.97
2023-04-19T04:15:31.351Z,8.33
2023-04-19T04:16:31.364Z,8.65
2023-04-19T04:17:31.367Z,7.69
2023-04-19T04:18:31.308Z,8.65
2023-04-19T04:19:31.313Z,8.01
2023-04-19T04:20:31.269Z,8.01
2023-04-19T04:21:31.261Z,8.65
2023-04-19T04:22:31.257Z,8.33
2023-04-19T04:23:31.247Z,8.33
2023-04-19T04:24:31.213Z,8.01
2023-04-19T04:25:31.213Z,8.01
2023-04-19T04:26:31.213Z,7.69
2023-04-19T04:27:31.187Z,8.97
2023-04-19T04:28:31.193Z,8.65
2023-04-19T04:29:31.161Z,8.33
2023-04-19T04:30:31.174Z,8.33
2023-04-19T04:31:31.170Z,8.33
2023-04-19T04:32:31.201Z,8.65
2023-04-19T04:33:31.125Z,8.01
2023-04-19T04:34:31.103Z,8.65
2023-04-19T04:35:31.107Z,8.01
2023-04-19T04:36:31.075Z,8.01
2023-04-19T04:37:31.065Z,8.65
2023-04-19T04:38:31.058Z,7.69
2023-04-19T04:39:31.053Z,8.33
2023-04-19T04:40:31.026Z,8.97
2023-04-19T04:41:31.029Z,8.33
2023-04-19T04:42:31.001Z,8.33
2023-04-19T04:43:31.014Z,7.69
2023-04-19T04:44:30.978Z,8.01
2023-04-19T04:45:30.995Z,7.69
2023-04-19T04:46:30.971Z,7.69
2023-04-19T04:47:31.086Z,8.97
2023-04-19T04:48:30.938Z,8.01
2023-04-19T04:49:30.921Z,8.01
2023-04-19T04:50:30.902Z,8.01
2023-04-19T04:51:30.891Z,7.69
2023-04-19T04:52:30.898Z,8.65
2023-04-19T04:53:30.889Z,8.33
2023-04-19T04:54:30.935Z,8.33
2023-04-19T04:55:30.849Z,8.33
2023-04-19T04:56:31.123Z,8.65
2023-04-19T04:57:30.842Z,8.65
2023-04-19T04:58:30.813Z,8.33
2023-04-19T04:59:30.826Z,8.33
2023-04-19T05:00:30.778Z,8.33
2023-04-19T05:01:30.798Z,8.33
2023-04-19T05:02:30.832Z,8.01
2023-04-19T05:03:30.795Z,8.01
2023-04-19T05:04:30.758Z,9.94
2023-04-19T05:05:30.713Z,8.33
2023-04-19T05:06:30.699Z,7.69
2023-04-19T05:07:30.693Z,8.01
2023-04-19T05:08:30.679Z,8.65
2023-04-19T05:09:30.661Z,8.01
2023-04-19T05:10:30.643Z,8.65
2023-04-19T05:11:30.626Z,8.65
2023-04-19T05:12:30.618Z,8.65
2023-04-19T05:13:30.616Z,8.33
2023-04-19T05:14:30.598Z,7.69
2023-04-19T05:15:30.578Z,8.33
2023-04-19T05:16:30.650Z,8.01
2023-04-19T05:17:30.568Z,8.65
2023-04-19T05:18:30.556Z,8.33
2023-04-19T05:19:30.548Z,8.65
2023-04-19T05:20:30.518Z,7.69
2023-04-19T05:21:30.498Z,8.97
2023-04-19T05:22:30.500Z,7.36
2023-04-19T05:23:30.485Z,7.36
2023-04-19T05:24:30.474Z,8.65
2023-04-19T05:25:30.464Z,8.01
2023-04-19T05:26:30.596Z,8.65
2023-04-19T05:27:30.429Z,8.33
2023-04-19T05:28:30.429Z,8.65
2023-04-19T05:29:30.399Z,8.97
2023-04-19T05:30:30.392Z,8.65
2023-04-19T05:31:30.400Z,8.01
2023-04-19T05:32:30.423Z,8.65
2023-04-19T05:33:30.357Z,7.69
2023-04-19T05:34:30.348Z,8.01
2023-04-19T05:35:30.321Z,8.33
2023-04-19T05:36:30.312Z,8.33
2023-04-19T05:37:30.310Z,8.65
2023-04-19T05:38:30.292Z,14.45
2023-04-19T05:39:30.270Z,8.01
2023-04-19T05:40:30.275Z,7.36
2023-04-19T05:41:30.235Z,8.01
2023-04-19T05:42:37.743Z,7.69
2023-04-19T05:43:30.233Z,8.33
2023-04-19T05:44:37.211Z,8.33
2023-04-19T05:45:37.704Z,8.01
2023-04-19T05:46:37.734Z,8.33
2023-04-19T05:47:30.175Z,8.33
2023-04-19T05:48:30.167Z,8.33
2023-04-19T05:49:30.139Z,8.33
2023-04-19T05:50:30.130Z,8.97
2023-04-19T05:51:30.117Z,8.33
2023-04-19T05:52:30.101Z,8.97
2023-04-19T05:53:30.088Z,8.01
2023-04-19T05:54:30.138Z,8.33
2023-04-19T05:55:30.061Z,8.01
2023-04-19T05:56:30.092Z,8.97
2023-04-19T05:57:30.058Z,8.33
2023-04-19T05:58:30.046Z,8.33
2023-04-19T05:59:30.002Z,8.01
2023-04-19T06:00:29.993Z,4.46
2023-04-19T06:01:29.983Z,8.33
2023-04-19T06:02:30.064Z,8.33
2023-04-19T06:03:32.026Z,8.01
2023-04-19T06:04:30.110Z,8.65
2023-04-19T06:05:29.978Z,8.65
2023-04-19T06:06:29.960Z,8.65
2023-04-19T06:07:33.005Z,8.33
2023-04-19T06:08:30.960Z,8.65
2023-04-19T06:09:29.878Z,8.65
2023-04-19T06:10:40.440Z,8.33
2023-04-19T06:11:38.937Z,8.33
2023-04-19T06:12:30.834Z,8.33
2023-04-19T06:13:29.832Z,7.69
2023-04-19T06:14:29.810Z,8.33
2023-04-19T06:15:29.794Z,8.33
2023-04-19T06:16:29.808Z,8.33
2023-04-19T06:17:29.780Z,8.01
2023-04-19T06:18:29.760Z,8.33
2023-04-19T06:19:29.751Z,8.33
2023-04-19T06:20:29.804Z,8.01
2023-04-19T06:21:29.715Z,8.65
2023-04-19T06:22:29.700Z,8.65
2023-04-19T06:23:29.690Z,8.01
2023-04-19T06:24:29.694Z,8.33
2023-04-19T06:25:29.668Z,8.01
2023-04-19T06:26:29.667Z,8.97
2023-04-19T06:27:29.649Z,8.33
2023-04-19T06:28:29.642Z,8.33
2023-04-19T06:29:29.602Z,8.33
2023-04-19T06:30:29.621Z,8.33
2023-04-19T06:31:29.626Z,8.33
2023-04-19T06:32:29.615Z,8.33
2023-04-19T06:33:29.558Z,8.65
2023-04-19T06:34:29.542Z,8.65
2023-04-19T06:35:29.519Z,8.33
2023-04-19T06:36:29.511Z,8.97
2023-04-19T06:37:29.497Z,8.33
2023-04-19T06:38:29.501Z,8.65
2023-04-19T06:39:29.471Z,8.65
2023-04-19T06:40:29.522Z,8.65
2023-04-19T06:41:29.449Z,8.97
2023-04-19T06:42:29.590Z,8.65
2023-04-19T06:43:29.431Z,9.30
2023-04-19T06:44:29.405Z,8.65
2023-04-19T06:45:29.398Z,8.33
2023-04-19T06:46:29.439Z,9.30
2023-04-19T06:47:29.368Z,8.97
2023-04-19T06:48:29.371Z,9.30
2023-04-19T06:49:29.339Z,8.65
2023-04-19T06:50:29.396Z,8.97
2023-04-19T06:51:29.305Z,9.62
2023-04-19T06:52:29.318Z,9.30
2023-04-19T06:53:29.313Z,9.30
2023-04-19T06:54:29.280Z,9.62
2023-04-19T06:55:29.257Z,8.65
2023-04-19T06:56:29.357Z,8.97
2023-04-19T06:57:29.228Z,8.97
2023-04-19T06:58:29.223Z,8.97
2023-04-19T06:59:29.197Z,9.62
2023-04-19T07:00:29.202Z,9.30
2023-04-19T07:01:29.268Z,8.33
2023-04-19T07:02:29.257Z,8.97
2023-04-19T07:03:29.288Z,8.97
2023-04-19T07:04:29.365Z,9.30
2023-04-19T07:05:29.119Z,9.30
2023-04-19T07:06:29.109Z,8.97
2023-04-19T07:07:29.105Z,8.97
2023-04-19T07:08:42.374Z,8.97
2023-04-19T07:09:30.074Z,8.97
2023-04-19T07:10:29.069Z,9.30
2023-04-19T07:11:29.121Z,9.62
2023-04-19T07:12:29.038Z,9.62
2023-04-19T07:13:29.037Z,9.94
2023-04-19T07:14:29.011Z,9.62
2023-04-19T07:15:28.990Z,9.30
2023-04-19T07:16:29.033Z,9.94
2023-04-19T07:17:28.996Z,8.97
2023-04-19T07:18:28.962Z,9.62
2023-04-19T07:19:28.951Z,10.26
2023-04-19T07:20:28.931Z,9.62
2023-04-19T07:21:28.906Z,9.30
2023-04-19T07:22:28.902Z,9.30
2023-04-19T07:23:28.896Z,9.94
2023-04-19T07:24:28.890Z,9.30
2023-04-19T07:25:28.853Z,8.97
2023-04-19T07:26:28.866Z,9.94
2023-04-19T07:27:28.846Z,9.94
2023-04-19T07:28:28.832Z,9.62
2023-04-19T07:29:28.806Z,8.97
2023-04-19T07:30:28.794Z,9.30
2023-04-19T07:31:28.774Z,9.62
2023-04-19T07:32:28.834Z,8.65
2023-04-19T07:33:28.826Z,9.62
2023-04-19T07:34:28.741Z,10.26
2023-04-19T07:35:28.736Z,9.62
2023-04-19T07:36:28.721Z,9.94
2023-04-19T07:37:28.714Z,9.30
2023-04-19T07:38:28.702Z,9.30
2023-04-19T07:39:28.670Z,9.62
2023-04-19T07:40:28.667Z,9.94
2023-04-19T07:41:28.645Z,9.94
2023-04-19T07:42:28.638Z,9.62
2023-04-19T07:43:28.633Z,9.62
2023-04-19T07:44:28.614Z,9.94
2023-04-19T07:45:28.591Z,9.94
2023-04-19T07:46:28.604Z,10.26
2023-04-19T07:47:28.590Z,9.30
2023-04-19T07:48:28.573Z,10.26
2023-04-19T07:49:28.538Z,10.26
2023-04-19T07:50:28.581Z,9.94
2023-04-19T07:51:28.508Z,9.62
2023-04-19T07:52:28.501Z,10.26
2023-04-19T07:53:28.494Z,10.59
2023-04-19T07:54:28.477Z,9.94
2023-04-19T07:55:28.466Z,9.94
2023-04-19T07:56:28.456Z,10.26
2023-04-19T07:57:28.441Z,10.59
2023-04-19T07:58:28.429Z,10.26
2023-04-19T07:59:28.404Z,10.26
2023-04-19T08:00:28.397Z,9.62
2023-04-19T08:01:29.258Z,10.59
2023-04-19T08:02:28.579Z,10.59
2023-04-19T08:03:28.508Z,11.23
2023-04-19T08:04:28.847Z,10.26
2023-04-19T08:05:28.582Z,10.26
2023-04-19T08:06:28.316Z,10.59
2023-04-19T08:07:28.302Z,10.26
2023-04-19T08:08:28.308Z,10.91
2023-04-19T08:09:28.290Z,10.91
2023-04-19T08:10:28.264Z,10.59
2023-04-19T08:11:28.249Z,10.91
2023-04-19T08:12:35.054Z,10.59
2023-04-19T08:13:29.245Z,10.91
2023-04-19T08:14:40.008Z,10.91
2023-04-19T08:16:05.233Z,10.59
2023-04-19T08:17:06.499Z,10.59
2023-04-19T08:17:33.569Z,10.59
2023-04-19T08:18:29.183Z,10.26
2023-04-19T08:19:28.148Z,10.91
2023-04-19T08:20:28.143Z,10.91
2023-04-19T08:21:37.964Z,9.30
2023-04-19T08:22:29.104Z,11.23
2023-04-19T08:23:37.791Z,10.91
2023-04-19T08:24:29.083Z,10.91
2023-04-19T08:25:28.067Z,10.91
2023-04-19T08:26:28.055Z,10.91
2023-04-19T08:27:28.032Z,10.91
2023-04-19T08:28:28.037Z,11.23
2023-04-19T08:29:28.006Z,11.23
2023-04-19T08:30:28.005Z,10.59
2023-04-19T08:31:28.003Z,10.59
2023-04-19T08:32:28.011Z,11.23
2023-04-19T08:33:27.961Z,10.91
2023-04-19T08:34:27.970Z,11.23
2023-04-19T08:35:27.949Z,10.59
2023-04-19T08:36:37.027Z,10.91
2023-04-19T08:37:28.902Z,10.91
2023-04-19T08:38:27.911Z,10.59
2023-04-19T08:39:33.063Z,11.23
2023-04-19T08:40:28.864Z,10.91
2023-04-19T08:41:27.846Z,11.55
2023-04-19T08:42:35.698Z,11.87
2023-04-19T08:43:28.840Z,11.23
2023-04-19T08:44:35.888Z,11.55
2023-04-19T08:45:29.376Z,10.91
2023-04-19T08:46:27.877Z,10.91
2023-04-19T08:47:32.316Z,11.23
2023-04-19T08:48:28.813Z,10.91
2023-04-19T08:49:27.740Z,11.55
2023-04-19T08:50:35.449Z,11.55
2023-04-19T08:51:28.715Z,11.23
2023-04-19T08:52:27.710Z,11.23
2023-04-19T08:53:27.717Z,11.23
2023-04-19T08:54:27.676Z,12.84
2023-04-19T08:55:27.708Z,11.55
2023-04-19T08:56:35.218Z,11.23
2023-04-19T08:57:28.635Z,11.23
2023-04-19T08:58:40.743Z,11.55
2023-04-19T08:59:28.615Z,11.55
2023-04-19T09:00:27.661Z,11.55
2023-04-19T09:01:35.673Z,11.55
2023-04-19T09:02:28.750Z,12.52
2023-04-19T09:03:27.847Z,11.55
2023-04-19T09:05:28.703Z,11.55
2023-04-19T09:06:27.903Z,11.87
2023-04-19T09:07:27.508Z,12.20
2023-04-19T09:08:27.533Z,11.87
2023-04-19T09:10:27.472Z,11.87
2023-04-19T09:11:27.451Z,11.55
2023-04-19T09:12:27.434Z,11.55
2023-04-19T09:13:27.528Z,11.55
2023-04-19T09:14:27.431Z,11.23
2023-04-19T09:15:27.389Z,11.87
2023-04-19T09:16:27.419Z,11.87
2023-04-19T09:17:27.398Z,12.52
2023-04-19T09:18:29.659Z,12.20
2023-04-19T09:19:27.511Z,11.87
2023-04-19T09:20:27.319Z,12.20
2023-04-19T09:21:27.316Z,12.52
2023-04-19T09:22:27.302Z,12.52
2023-04-19T09:23:27.311Z,12.52
2023-04-19T09:24:33.052Z,11.87
2023-04-19T09:26:27.241Z,12.52
2023-04-19T09:27:27.232Z,12.20
2023-04-19T09:28:27.221Z,11.55
2023-04-19T09:29:27.203Z,11.87
2023-04-19T09:30:32.492Z,11.87
2023-04-19T09:31:43.463Z,13.16
2023-04-19T09:32:28.355Z,12.20
2023-04-19T09:33:27.208Z,12.52
2023-04-19T09:34:27.133Z,12.52
2023-04-19T09:35:27.127Z,15.42
2023-04-19T09:36:27.153Z,12.84
2023-04-19T09:37:51.258Z,12.52
2023-04-19T09:38:28.097Z,13.16
2023-04-19T09:39:27.070Z,12.20
2023-04-19T09:40:27.124Z,11.87
2023-04-19T09:41:27.047Z,13.16
2023-04-19T09:42:47.416Z,12.52
2023-04-19T09:43:55.902Z,12.84
2023-04-19T09:45:30.402Z,12.52
2023-04-19T09:46:27.049Z,13.16
2023-04-19T09:47:27.013Z,12.84
2023-04-19T09:48:26.956Z,12.84
2023-04-19T09:49:37.696Z,13.49
2023-04-19T09:50:27.949Z,13.49
2023-04-19T09:51:26.915Z,12.84
2023-04-19T09:52:26.895Z,13.16
2023-04-19T09:53:26.888Z,13.16
2023-04-19T09:54:26.875Z,12.20
2023-04-19T09:55:29.039Z,12.20
2023-04-19T09:56:26.838Z,13.16
2023-04-19T09:57:26.877Z,12.84
2023-04-19T09:58:34.387Z,13.16
2023-04-19T09:59:27.806Z,13.16
2023-04-19T10:00:28.254Z,12.84
2023-04-19T10:01:26.926Z,13.16
2023-04-19T10:02:26.910Z,13.81
2023-04-19T10:03:26.822Z,12.84
2023-04-19T10:04:38.235Z,12.84
2023-04-19T10:05:27.858Z,13.81
2023-04-19T10:06:45.643Z,13.49
2023-04-19T10:07:30.858Z,12.84
2023-04-19T10:08:26.699Z,13.49
2023-04-19T10:09:26.669Z,13.81
2023-04-19T10:10:40.626Z,13.81
2023-04-19T10:11:27.759Z,13.16
2023-04-19T10:13:27.103Z,13.49
2023-04-19T10:14:26.613Z,13.16
2023-04-19T10:15:29.485Z,13.49
2023-04-19T10:16:27.722Z,13.49
2023-04-19T10:17:26.593Z,13.81
2023-04-19T10:18:26.555Z,13.16
2023-04-19T10:19:26.551Z,13.49
2023-04-19T10:20:26.525Z,13.81
2023-04-19T10:21:26.516Z,13.16
2023-04-19T10:22:26.501Z,14.13
2023-04-19T10:23:26.492Z,13.49
2023-04-19T10:24:26.486Z,14.13
2023-04-19T10:25:26.495Z,13.81
2023-04-19T10:26:26.449Z,13.81
2023-04-19T10:27:26.458Z,14.13
2023-04-19T10:28:26.410Z,13.81
2023-04-19T10:29:26.423Z,13.81
2023-04-19T10:30:26.392Z,13.49
2023-04-19T10:31:26.417Z,13.81
2023-04-19T10:32:26.463Z,13.81
2023-04-19T10:33:26.367Z,13.81
2023-04-19T10:34:26.348Z,13.81
2023-04-19T10:35:26.325Z,13.49
2023-04-19T10:36:26.310Z,14.13
2023-04-19T10:37:26.318Z,13.49
2023-04-19T10:38:26.283Z,13.81
2023-04-19T10:39:26.282Z,13.81
2023-04-19T10:40:26.257Z,13.81
2023-04-19T10:41:26.251Z,13.81
2023-04-19T10:42:26.232Z,13.49
2023-04-19T10:43:26.222Z,13.49
2023-04-19T10:44:26.214Z,13.49
2023-04-19T10:45:26.199Z,13.49
2023-04-19T10:46:26.585Z,12.84
2023-04-19T10:47:26.216Z,13.81
2023-04-19T10:48:26.150Z,13.81
2023-04-19T10:49:26.152Z,13.81
2023-04-19T10:50:26.120Z,14.13
2023-04-19T10:51:26.111Z,13.49
2023-04-19T10:52:26.097Z,13.16
2023-04-19T10:53:26.085Z,13.49
2023-04-19T10:54:26.081Z,13.16
2023-04-19T10:55:26.068Z,13.16
2023-04-19T10:56:26.037Z,14.45
2023-04-19T10:57:26.043Z,12.84
2023-04-19T10:58:26.021Z,13.81
2023-04-19T10:59:26.023Z,13.49
2023-04-19T11:00:25.999Z,13.49
2023-04-19T11:01:26.007Z,13.49
2023-04-19T11:02:26.217Z,13.81
2023-04-19T11:03:26.122Z,13.49
2023-04-19T11:04:26.073Z,14.13
2023-04-19T11:05:25.933Z,13.81
2023-04-19T11:06:25.915Z,13.81
2023-04-19T11:07:25.906Z,13.49
2023-04-19T11:08:25.898Z,14.13
2023-04-19T11:09:25.899Z,13.81
2023-04-19T11:10:25.863Z,13.81
2023-04-19T11:11:25.850Z,14.13
2023-04-19T11:12:25.855Z,21.22
2023-04-19T11:13:25.828Z,14.13
2023-04-19T11:14:25.816Z,14.13
2023-04-19T11:15:25.800Z,10.26
2023-04-19T11:16:38.015Z,14.13
2023-04-19T11:17:26.828Z,13.81
2023-04-19T11:18:25.824Z,13.49
2023-04-19T11:19:25.751Z,13.81
2023-04-19T11:20:25.723Z,13.16
2023-04-19T11:21:25.721Z,14.13
2023-04-19T11:22:25.701Z,12.20
2023-04-19T11:23:25.721Z,14.45
2023-04-19T11:24:25.678Z,13.81
2023-04-19T11:25:25.665Z,14.45
2023-04-19T11:26:25.654Z,14.45
2023-04-19T11:27:25.658Z,14.13
2023-04-19T11:28:25.625Z,14.45
2023-04-19T11:29:25.632Z,14.78
2023-04-19T11:30:25.589Z,14.13
2023-04-19T11:31:25.617Z,23.80
2023-04-19T11:32:25.597Z,13.81
2023-04-19T11:33:25.554Z,14.45
2023-04-19T11:34:25.561Z,14.13
2023-04-19T11:35:25.558Z,14.45
2023-04-19T11:36:25.510Z,14.78
2023-04-19T11:37:25.503Z,14.45
2023-04-19T11:38:25.486Z,14.13
2023-04-19T11:39:25.489Z,13.81
2023-04-19T11:40:25.461Z,14.45
2023-04-19T11:41:25.448Z,14.13
2023-04-19T11:42:25.433Z,13.16
2023-04-19T11:43:25.429Z,14.45
2023-04-19T11:44:25.416Z,14.13
2023-04-19T11:45:30.236Z,14.13
2023-04-19T11:46:26.528Z,13.49
2023-04-19T11:47:25.440Z,13.49
2023-04-19T11:48:25.362Z,13.49
2023-04-19T11:49:25.376Z,13.16
2023-04-19T11:50:25.326Z,13.49
2023-04-19T11:51:25.329Z,14.45
2023-04-19T11:52:25.344Z,14.13
2023-04-19T11:53:25.310Z,13.81
2023-04-19T11:54:25.286Z,13.81
2023-04-19T11:55:25.269Z,13.81
2023-04-19T11:56:25.258Z,13.49
2023-04-19T11:57:25.236Z,13.81
2023-04-19T11:58:25.223Z,14.45
2023-04-19T11:59:25.219Z,13.81
2023-04-19T12:00:25.184Z,14.13
2023-04-19T12:01:25.175Z,13.49
2023-04-19T12:02:25.309Z,13.81
2023-04-19T12:03:26.797Z,13.16
2023-04-19T12:04:32.382Z,13.49
2023-04-19T12:05:32.297Z,13.49
2023-04-19T12:06:25.106Z,13.49
2023-04-19T12:07:25.109Z,13.16
2023-04-19T12:08:25.083Z,13.81
2023-04-19T12:09:25.092Z,13.81
2023-04-19T12:10:25.061Z,13.81
2023-04-19T12:11:25.052Z,13.16
2023-04-19T12:12:25.066Z,13.16
2023-04-19T12:13:25.021Z,13.16
2023-04-19T12:14:25.014Z,13.49
2023-04-19T12:15:26.986Z,13.16
2023-04-19T12:16:25.083Z,12.52
2023-04-19T12:17:24.990Z,13.16
2023-04-19T12:18:25.011Z,13.16
2023-04-19T12:19:24.950Z,13.49
2023-04-19T12:20:24.924Z,13.16
2023-04-19T12:21:24.938Z,13.49
2023-04-19T12:22:24.897Z,12.84
2023-04-19T12:23:24.889Z,13.81
2023-04-19T12:24:24.882Z,13.16
2023-04-19T12:25:24.860Z,13.49
2023-04-19T12:26:24.857Z,13.49
2023-04-19T12:27:24.837Z,13.16
2023-04-19T12:28:24.817Z,13.49
2023-04-19T12:29:24.817Z,13.16
2023-04-19T12:30:24.793Z,13.81
2023-04-19T12:31:24.846Z,13.16
2023-04-19T12:32:24.939Z,12.52
2023-04-19T12:33:24.754Z,13.81
2023-04-19T12:34:24.744Z,13.49
2023-04-19T12:35:24.796Z,8.01
2023-04-19T12:36:24.707Z,12.84
2023-04-19T12:37:24.715Z,13.81
2023-04-19T12:38:24.683Z,13.16
2023-04-19T12:39:24.685Z,13.49
2023-04-19T12:40:24.655Z,12.84
2023-04-19T12:41:24.663Z,13.49
2023-04-19T12:42:24.634Z,12.84
2023-04-19T12:43:24.624Z,12.84
2023-04-19T12:44:24.613Z,12.84
2023-04-19T12:45:24.591Z,12.84
2023-04-19T12:46:24.657Z,13.16
2023-04-19T12:47:24.599Z,11.87
2023-04-19T12:48:24.556Z,13.16
2023-04-19T12:49:24.578Z,12.52
2023-04-19T12:50:24.522Z,13.16
2023-04-19T12:51:24.511Z,12.84
2023-04-19T12:52:24.490Z,13.16
2023-04-19T12:53:24.487Z,12.20
2023-04-19T12:54:24.493Z,12.84
2023-04-19T12:55:24.527Z,13.16
2023-04-19T12:56:24.438Z,13.16
2023-04-19T12:57:24.420Z,12.84
2023-04-19T12:58:24.411Z,12.52
2023-04-19T12:59:24.425Z,13.16
2023-04-19T13:00:24.395Z,12.84
2023-04-19T13:01:24.385Z,13.16
2023-04-19T13:02:24.543Z,12.52
2023-04-19T13:03:24.577Z,12.20
2023-04-19T13:04:24.763Z,13.16
2023-04-19T13:05:24.471Z,12.84
2023-04-19T13:06:24.312Z,12.52
2023-04-19T13:07:24.298Z,13.16
2023-04-19T13:08:37.168Z,12.52
2023-04-19T13:09:25.284Z,12.84
2023-04-19T13:10:24.245Z,12.84
2023-04-19T13:11:24.282Z,12.20
2023-04-19T13:12:24.342Z,13.16